W K Kellogg Airport
KBTL : now visible

Airfield :











YOU CAN JOIN US ON...

 
LOGIN :

Register | Disclaimer

   EN    FR    IT 

 









Legend :    VFR   Marginal VFR   IFR   Intensive IFR   Very Intensive IFR
Visi :
Ceiling :
>= 8 km
>= 3000ft
5 to 8 km
1000 to 3000 ft
1500m to 5 km
500 to 1000 ft
800 to 1500m
200 to 500 ft
< 800m
< 200 ft
Symbols :   Thunderstorms  Fog  Heavy snow  Heavy precipitations  Wind > 20 kt






- Airport Elevation : 952 ft


KBTL - W K Kellogg

CURRENT METAR :
  • 141703Z 24006KT 1 1/2SM BR OVC005 M02/M03 A3018 RMK AO2 T10171028

EXPIRED METARs :
  • 141653Z 23007KT 2SM BR OVC006 M02/M03 A3018 RMK AO2 SLP233 I1000 T10221028
  • 141622Z 22007KT 1 3/4SM BR OVC006 M02/M03 A3019 RMK AO2 I1000 T10221033
  • 141553Z 21007KT 2 1/2SM BR OVC007 M02/M03 A3018 RMK AO2 SLP233 T10221033
  • 141428Z 22007KT 3SM BR OVC014 M03/M04 A3016 RMK AO2 T10281044

TAF KBTL
Valid from the 14 at 15:00 until the 15 at 12:00 UTC


141512Z 1415/1512 23007KT 2SM BR OVC007
FM142100 26006KT 4SM BR BKN015
FM150600 24008KT P6SM SCT035



MET'MAP, your aeronautical weather chart ! - Copyright ORBIFLY December 2007 - Disclaimer

ORBIFLY MET'MAP TEAM :

Programming & Development : Alexandra Zaïnal
Concept & Development : Baudouin d'Aumeries
Co-Development & Prog : Marc-Olivier Méhu
Technical & hardware support : Manuel Goepfert

Contact : metmap@orbifly.com




SOURCES & CREDITS :

   NOAA       Earth
Advisory